aviador You're here:

ROIG Decoded Metar

ISHIGAKI in JAPAN
Report Time2017-07-26 04:00:00
UTC Time2017-07-26 04:41:25
Flight Rules vfr VFR
WindVRB at 03 kt
Visibility9999 m
Phenomena:Light Shower Rain
Clouds:Scattered 020 Hf
Expected CloudBase > 2,000 ft AGL from Temp-Dew spread
CeilingNone
Temp30°C (ISA +15)
Dew Point25°C (75% RH)
Heat Index36.3°C
QNH1005 hPa
Density Alt2,431 ft
Elevation23 ft
Report Wrong Elevation
Raw Report
METAR ROIG 260400Z VRB03KT 9999 -SHRA SCT020 30/25 Q1005=

Extra information for ROIG:More info

Metar Taf Metar & Taf Last 4 Metars F.Rules Stats Wind Profile Meteogram Temp Stats Airport Information Weather charts Add Link Nearby VenuesMetar ALERT Operation Metar Decoded Social comments